Waremme, Belgium
Current Conditions -  °F | °C
As of 4:20 PM on Thursday 18 Dec 2014 (Local Time) from EBLG Reporting Station
Broken Clouds Broken Clouds  
Wind Chill: 12°   Ceiling: 800
Heat Index: 12°   Visibility: 6mi
Dew Point: 10°   Wind: 20mph
Humidity: 88%   Direction: 240°WSW
Pressure: 29.91"   Gusts: NA
Location:  50.7°N, 5.26°E
Report Text: EBLG 181520Z 24017KT 9999 FEW007 BKN008 12/10 Q1013 TEMPO 24023G35KT BKN006
Loading
Personal Weather Stations






























Interactive Weather Map New forecast layout! Learn more

10-Day Weather Forecast

Advertisements
Track Severe Weather on mobile